Janesville, Iowa
Current Conditions -  °F | °C
As of 6:06 PM on Wednesday 26 Nov 2014 (Local Time) from KALO Reporting Station
Light Snow Light Snow  
Wind Chill: 17°   Ceiling: 3100
Heat Index: 27°   Visibility: 2.5mi
Dew Point: 25°   Wind: 10mph
Humidity: 92%   Direction: 20°NNE
Pressure: 30.21"   Gusts: NA
Location:  42.65°N, 92.46°W
Report Text: KALO 270006Z 02009KT 2 1/2SM -SN BR OVC031 M03/M04 A3021 RMK AO2 P0000 T10281039
Loading
Personal Weather Stations






























Interactive Weather Map New forecast layout! Learn more

10-Day Weather Forecast

Advertisements
Track Severe Weather on mobile